Time;durP1;ratioP1;P1;durP2;ratioP2;P2;SDS_P1;SDS_P2;PMS_P1;PMS_P2;Temp;Humidity;BMP_temperature;BMP_pressure;BME280_temperature;BME280_humidity;BME280_pressure;Samples;Min_cycle;Max_cycle;Signal;HPM_P1;HPM_P2
2023/03/28 00:00:48;;;;;;;;;;;;;;;-0.06;100.00;100506.88;5134164;27;20046;-68
2023/03/28 00:03:17;;;;;;;;;;;;;;;-0.08;100.00;100511.34;5134685;27;20078;-68
2023/03/28 00:05:43;;;;;;;;;;;;;;;-0.10;100.00;100508.84;5116347;27;19915;-69
2023/03/28 00:08:10;;;;;;;;;;;;;;;-0.08;100.00;100506.13;5134462;27;19912;-68
2023/03/28 00:10:36;;;;;;;;;;;;;;;-0.10;100.00;100497.53;5134339;27;19958;-67
2023/03/28 00:13:01;;;;;;;;;;;;;;;-0.07;100.00;100505.19;5133941;27;19954;-69
2023/03/28 00:15:27;;;;;;;;;;;;;;;-0.08;100.00;100516.59;5134240;27;19919;-68
2023/03/28 00:17:52;;;;;;;;;;;;;;;-0.06;100.00;100509.47;5134417;27;19919;-68
2023/03/28 00:20:18;;;;;;;;;;;;;;;-0.05;100.00;100508.53;5137029;27;19912;-66
2023/03/28 00:22:44;;;;;;;;;;;;;;;-0.04;100.00;100507.59;5135556;27;19912;-69
2023/03/28 00:25:10;;;;;;;;;;;;;;;-0.03;100.00;100515.34;5134989;27;19946;-68
2023/03/28 00:27:35;;;;;;;;;;;;;;;-0.01;100.00;100512.63;5134836;27;19959;-68
2023/03/28 00:30:02;;;;;;;;;;;;;;;0.01;100.00;100516.00;5136030;27;19923;-68
2023/03/28 00:32:27;;;;;;;;;;;;;;;-0.01;100.00;100513.47;5133836;27;20010;-69
2023/03/28 00:34:52;;;;;;;;;;;;;;;-0.03;100.00;100519.75;5133492;27;19954;-68
2023/03/28 00:37:18;;;;;;;;;;;;;;;-0.03;100.00;100517.13;5133623;27;19941;-68
2023/03/28 00:39:48;;;;;;;;;;;;;;;-0.04;100.00;100521.53;5115217;27;19997;-69
2023/03/28 00:42:17;;;;;;;;;;;;;;;0.02;100.00;100528.16;5133477;27;19918;-69
2023/03/28 00:44:50;;;;;;;;;;;;;;;0.04;100.00;100525.44;5133692;27;20325;-69
2023/03/28 00:47:36;;;;;;;;;;;;;;;0.00;100.00;100530.03;5133509;27;19918;-69
2023/03/28 00:50:10;;;;;;;;;;;;;;;0.04;100.00;100530.69;5133504;27;19911;-68
2023/03/28 00:53:00;;;;;;;;;;;;;;;0.02;100.00;100536.00;5132986;27;19915;-68
2023/03/28 00:55:29;;;;;;;;;;;;;;;0.01;100.00;100531.72;5122940;27;19998;-68
2023/03/28 00:57:54;;;;;;;;;;;;;;;-0.01;100.00;100538.81;5133452;27;20021;-68
2023/03/28 01:00:20;;;;;;;;;;;;;;;0.06;100.00;100547.97;5133620;27;19996;-68
2023/03/28 01:02:51;;;;;;;;;;;;;;;0.08;100.00;100538.22;5114822;28;19912;-68
2023/03/28 01:05:18;;;;;;;;;;;;;;;0.07;100.00;100539.16;5133219;28;19918;-67
2023/03/28 01:07:46;;;;;;;;;;;;;;;0.08;100.00;100533.00;5133547;28;19918;-67
2023/03/28 01:10:12;;;;;;;;;;;;;;;0.11;100.00;100532.78;5133304;28;19911;-69
2023/03/28 01:12:38;;;;;;;;;;;;;;;0.14;100.00;100527.34;5133188;28;19911;-69
2023/03/28 01:15:03;;;;;;;;;;;;;;;0.15;100.00;100536.03;5133192;28;19953;-68
2023/03/28 01:17:29;;;;;;;;;;;;;;;0.13;100.00;100530.91;5133080;28;19975;-68
2023/03/28 01:20:13;;;;;;;;;;;;;;;0.11;100.00;100548.50;5132896;28;19911;-69
2023/03/28 01:22:54;;;;;;;;;;;;;;;0.09;100.00;100550.38;5133257;28;20006;-69
2023/03/28 01:25:38;;;;;;;;;;;;;;;0.03;100.00;100550.78;5133102;28;20431;-69
2023/03/28 01:28:04;;;;;;;;;;;;;;;0.01;100.00;100552.66;5132993;28;19999;-69
2023/03/28 01:30:30;;;;;;;;;;;;;;;-0.01;100.00;100554.50;5132897;28;19966;-68
2023/03/28 01:33:14;;;;;;;;;;;;;;;-0.01;100.00;100551.91;5133061;28;19912;-69
2023/03/28 01:35:42;;;;;;;;;;;;;;;0.01;100.00;100563.13;5132783;28;20006;-69
2023/03/28 01:38:27;;;;;;;;;;;;;;;0.06;100.00;100554.97;5132980;28;19923;-69
2023/03/28 01:41:15;;;;;;;;;;;;;;;0.11;100.00;100553.72;5132990;28;19915;-69
2023/03/28 01:43:44;;;;;;;;;;;;;;;0.18;100.00;100560.22;5121647;28;19918;-68
2023/03/28 01:46:18;;;;;;;;;;;;;;;0.22;100.00;100566.09;5132836;28;19919;-67
2023/03/28 01:48:43;;;;;;;;;;;;;;;0.23;100.00;100562.53;5114297;28;19915;-67
2023/03/28 01:51:08;;;;;;;;;;;;;;;0.24;100.00;100565.06;5132595;28;19930;-68
2023/03/28 01:53:34;;;;;;;;;;;;;;;0.23;100.00;100568.63;5132995;28;19954;-68
2023/03/28 01:56:03;;;;;;;;;;;;;;;0.21;100.00;100570.50;5133002;28;19911;-69
2023/03/28 01:58:47;;;;;;;;;;;;;;;0.25;100.00;100576.38;5132781;28;19911;-68
2023/03/28 02:01:21;;;;;;;;;;;;;;;0.27;100.00;100572.72;5132602;28;19911;-67
2023/03/28 02:03:50;;;;;;;;;;;;;;;0.27;100.00;100577.09;5133053;27;19912;-69
2023/03/28 02:06:16;;;;;;;;;;;;;;;0.27;100.00;100585.81;5136747;27;19911;-68
2023/03/28 02:08:43;;;;;;;;;;;;;;;0.23;100.00;100584.34;5136454;27;19928;-68
2023/03/28 02:11:09;;;;;;;;;;;;;;;0.17;100.00;100582.13;5136292;27;19919;-68
2023/03/28 02:13:43;;;;;;;;;;;;;;;0.18;100.00;100589.03;5117985;27;19911;-69
2023/03/28 02:16:10;;;;;;;;;;;;;;;0.19;100.00;100595.97;5136225;27;19972;-69
2023/03/28 02:18:38;;;;;;;;;;;;;;;0.20;100.00;100589.78;5136348;27;19966;-68
2023/03/28 02:21:10;;;;;;;;;;;;;;;0.19;100.00;100592.50;5136471;27;19975;-69
2023/03/28 02:23:37;;;;;;;;;;;;;;;0.17;100.00;100597.84;5136489;27;20036;-68
2023/03/28 02:26:02;;;;;;;;;;;;;;;0.16;100.00;100601.41;5136088;27;19912;-68
2023/03/28 02:28:30;;;;;;;;;;;;;;;0.14;100.00;100602.44;5135935;27;20385;-70
2023/03/28 02:30:56;;;;;;;;;;;;;;;0.16;100.00;100604.00;5136022;27;20382;-70
2023/03/28 02:33:38;;;;;;;;;;;;;;;0.16;100.00;100603.19;5136320;27;20006;-69
2023/03/28 02:36:27;;;;;;;;;;;;;;;0.19;100.00;100598.56;5135965;27;20000;-69
2023/03/28 02:38:55;;;;;;;;;;;;;;;0.18;100.00;100602.13;5124867;27;20255;-69
2023/03/28 02:41:21;;;;;;;;;;;;;;;0.20;100.00;100605.50;5136324;27;20006;-69
2023/03/28 02:43:46;;;;;;;;;;;;;;;0.19;100.00;100608.22;5135828;27;20010;-68
2023/03/28 02:46:12;;;;;;;;;;;;;;;0.15;100.00;100606.75;5135837;27;20018;-68
2023/03/28 02:48:43;;;;;;;;;;;;;;;0.13;100.00;100604.22;5135951;27;19964;-67
2023/03/28 02:51:34;;;;;;;;;;;;;;;0.15;100.00;100607.56;5135719;27;19964;-69
2023/03/28 02:54:02;;;;;;;;;;;;;;;0.20;100.00;100602.88;5104013;27;19922;-69
2023/03/28 02:56:35;;;;;;;;;;;;;;;0.20;100.00;100600.25;5135709;27;20443;-68
2023/03/28 02:59:06;;;;;;;;;;;;;;;0.19;100.00;100608.22;5135572;27;19911;-70
2023/03/28 03:01:32;;;;;;;;;;;;;;;0.18;100.00;100604.75;5135502;27;20278;-69
2023/03/28 03:03:59;;;;;;;;;;;;;;;0.18;100.00;100612.63;5135561;27;19911;-69
2023/03/28 03:06:24;;;;;;;;;;;;;;;0.17;100.00;100613.56;5135509;27;19919;-68
2023/03/28 03:08:50;;;;;;;;;;;;;;;0.16;100.00;100609.25;5135325;27;19911;-69
2023/03/28 03:11:15;;;;;;;;;;;;;;;0.20;100.00;100615.97;5135268;27;19963;-69
2023/03/28 03:13:42;;;;;;;;;;;;;;;0.19;100.00;100624.78;5135004;27;19912;-67
2023/03/28 03:16:08;;;;;;;;;;;;;;;0.18;100.00;100620.47;5134455;27;19919;-69
2023/03/28 03:18:34;;;;;;;;;;;;;;;0.20;100.00;100625.59;5134959;27;19918;-68
2023/03/28 03:21:00;;;;;;;;;;;;;;;0.21;100.00;100628.13;5135516;27;19912;-69
2023/03/28 03:23:26;;;;;;;;;;;;;;;0.20;100.00;100621.22;5135228;27;20052;-68
2023/03/28 03:25:51;;;;;;;;;;;;;;;0.21;100.00;100622.88;5135901;27;19915;-68
2023/03/28 03:28:17;;;;;;;;;;;;;;;0.20;100.00;100626.44;5135756;27;19919;-69
2023/03/28 03:30:43;;;;;;;;;;;;;;;0.19;100.00;100622.16;5135689;27;20010;-68
2023/03/28 03:33:13;;;;;;;;;;;;;;;0.24;100.00;100629.69;5135518;27;19911;-68
2023/03/28 03:35:40;;;;;;;;;;;;;;;0.24;100.00;100630.53;5135627;27;19922;-69
2023/03/28 03:38:06;;;;;;;;;;;;;;;0.24;100.00;100627.91;5135356;27;19923;-69
2023/03/28 03:40:31;;;;;;;;;;;;;;;0.27;100.00;100629.50;5135496;27;19917;-69
2023/03/28 03:42:57;;;;;;;;;;;;;;;0.30;100.00;100630.16;5135528;27;20013;-67
2023/03/28 03:45:22;;;;;;;;;;;;;;;0.33;100.00;100633.53;5134639;27;20438;-68
2023/03/28 03:47:47;;;;;;;;;;;;;;;0.32;100.00;100634.47;5134372;27;20599;-70
2023/03/28 03:50:13;;;;;;;;;;;;;;;0.36;100.00;100641.19;5134744;27;19916;-68
2023/03/28 03:52:38;;;;;;;;;;;;;;;0.34;100.00;100645.69;5134511;27;19911;-68
2023/03/28 03:55:05;;;;;;;;;;;;;;;0.33;100.00;100638.75;5134449;27;19912;-68
2023/03/28 03:57:30;;;;;;;;;;;;;;;0.44;100.00;100649.38;5134274;27;19912;-69
2023/03/28 03:59:56;;;;;;;;;;;;;;;0.46;100.00;100643.09;5134152;27;20366;-68
2023/03/28 04:02:22;;;;;;;;;;;;;;;0.49;100.00;100658.59;5133954;27;19911;-69
2023/03/28 04:04:47;;;;;;;;;;;;;;;0.46;100.00;100661.41;5134252;27;19919;-69
2023/03/28 04:07:12;;;;;;;;;;;;;;;0.46;100.00;100663.19;5115982;27;19922;-68
2023/03/28 04:09:38;;;;;;;;;;;;;;;0.48;100.00;100661.31;5134190;27;20014;-68
2023/03/28 04:12:04;;;;;;;;;;;;;;;0.47;100.00;100664.88;5133927;27;19963;-68
2023/03/28 04:14:29;;;;;;;;;;;;;;;0.49;100.00;100668.25;5134062;27;19950;-68
2023/03/28 04:16:55;;;;;;;;;;;;;;;0.52;100.00;100670.66;5133658;27;20321;-68
2023/03/28 04:19:23;;;;;;;;;;;;;;;0.53;100.00;100672.34;5133917;27;20014;-69
2023/03/28 04:21:48;;;;;;;;;;;;;;;0.59;100.00;100674.56;5134259;27;19951;-70
2023/03/28 04:24:14;;;;;;;;;;;;;;;0.67;100.00;100681.94;5144219;27;19934;-69
2023/03/28 04:26:40;;;;;;;;;;;;;;;0.74;100.00;100676.16;5135453;27;20385;-69
2023/03/28 04:29:06;;;;;;;;;;;;;;;0.71;100.00;100676.38;5133810;27;19915;-70
2023/03/28 04:31:34;;;;;;;;;;;;;;;0.61;100.00;100672.69;5116189;27;19912;-67
2023/03/28 04:34:00;;;;;;;;;;;;;;;0.56;100.00;100669.50;5134901;27;19976;-68
2023/03/28 04:36:25;;;;;;;;;;;;;;;0.61;100.00;100676.16;5116423;27;19915;-70
2023/03/28 04:38:51;;;;;;;;;;;;;;;0.71;100.00;100679.00;5134228;27;19911;-68
2023/03/28 04:41:17;;;;;;;;;;;;;;;0.69;100.00;100685.28;5134600;27;19919;-67
2023/03/28 04:43:43;;;;;;;;;;;;;;;0.63;100.00;100681.28;5133636;27;19955;-68
2023/03/28 04:46:09;;;;;;;;;;;;;;;0.63;100.00;100678.66;5134432;27;19965;-68
2023/03/28 04:48:34;;;;;;;;;;;;;;;0.69;100.00;100688.75;5133720;27;19918;-70
2023/03/28 04:50:59;;;;;;;;;;;;;;;0.71;100.00;100699.97;5133595;27;19919;-69
2023/03/28 04:53:25;;;;;;;;;;;;;;;0.71;100.00;100699.97;5133211;27;19971;-70
2023/03/28 04:55:51;;;;;;;;;;;;;;;0.70;100.00;100703.53;5133325;27;19998;-70
2023/03/28 04:58:17;;;;;;;;;;;;;;;0.77;100.00;100702.16;5133096;27;19911;-68
2023/03/28 05:00:43;;;;;;;;;;;;;;;0.80;100.00;100699.34;5133142;27;19918;-69
2023/03/28 05:03:19;;;;;;;;;;;;;;;0.85;100.00;100688.56;5133425;28;19919;-69
2023/03/28 05:05:48;;;;;;;;;;;;;;;0.89;100.00;100698.75;5133459;28;19911;-69
2023/03/28 05:08:15;;;;;;;;;;;;;;;0.96;100.00;100700.97;5133195;28;19961;-72
2023/03/28 05:10:40;;;;;;;;;;;;;;;1.03;100.00;100705.69;5133108;28;19918;-67
2023/03/28 05:13:06;;;;;;;;;;;;;;;1.13;100.00;100711.16;5132749;28;19915;-66
2023/03/28 05:15:31;;;;;;;;;;;;;;;1.25;100.00;100726.06;5114692;28;19918;-69
2023/03/28 05:17:57;;;;;;;;;;;;;;;1.23;100.00;100722.72;5133210;28;20239;-68
2023/03/28 05:20:23;;;;;;;;;;;;;;;1.17;100.00;100725.75;5133074;28;19970;-69
2023/03/28 05:22:48;;;;;;;;;;;;;;;1.15;100.00;100727.63;5133218;28;20332;-69
2023/03/28 05:25:13;;;;;;;;;;;;;;;1.15;100.00;100725.00;5132845;28;19911;-69
2023/03/28 05:27:39;;;;;;;;;;;;;;;1.07;100.00;100727.28;5133149;28;19925;-69
2023/03/28 05:30:05;;;;;;;;;;;;;;;1.04;100.00;100727.50;5132983;28;19960;-65
2023/03/28 05:32:31;;;;;;;;;;;;;;;1.03;100.00;100733.69;5114687;28;19915;-67
2023/03/28 05:34:56;;;;;;;;;;;;;;;1.03;100.00;100723.22;5132911;28;19915;-68
2023/03/28 05:37:21;;;;;;;;;;;;;;;1.14;100.00;100733.81;5114681;28;19939;-68
2023/03/28 05:39:47;;;;;;;;;;;;;;;1.21;100.00;100735.09;5134556;27;19962;-64
2023/03/28 05:42:12;;;;;;;;;;;;;;;1.21;100.00;100745.59;5136807;27;19918;-65
2023/03/28 05:44:38;;;;;;;;;;;;;;;1.23;100.00;100757.66;5136923;27;19915;-65
2023/03/28 05:47:03;;;;;;;;;;;;;;;1.22;100.00;100768.25;5137004;27;20054;-64
2023/03/28 05:49:29;;;;;;;;;;;;;;;1.23;100.00;100776.03;5136787;27;19958;-64
2023/03/28 05:51:54;;;;;;;;;;;;;;;1.26;100.00;100784.63;5136269;27;19911;-64
2023/03/28 05:54:19;;;;;;;;;;;;;;;1.39;100.00;100796.81;5124348;27;19915;-65
2023/03/28 05:56:45;;;;;;;;;;;;;;;1.53;100.00;100791.47;5124082;27;19911;-64
2023/03/28 05:59:10;;;;;;;;;;;;;;;1.60;100.00;100798.94;5123784;27;19912;-64
2023/03/28 06:01:38;;;;;;;;;;;;;;;1.55;100.00;100783.50;5124930;27;20278;-66
2023/03/28 06:04:04;;;;;;;;;;;;;;;1.55;100.00;100791.38;5126435;27;19927;-66
2023/03/28 06:06:29;;;;;;;;;;;;;;;1.66;100.00;100803.75;5126897;27;20339;-69
2023/03/28 06:08:55;;;;;;;;;;;;;;;1.71;100.00;100802.50;5126829;27;19963;-66
2023/03/28 06:11:20;;;;;;;;;;;;;;;1.74;100.00;100804.09;5125431;27;19977;-63
2023/03/28 06:13:46;;;;;;;;;;;;;;;1.69;100.00;100809.63;5124026;27;19915;-63
2023/03/28 06:16:11;;;;;;;;;;;;;;;1.66;100.00;100809.84;5125900;27;19912;-64
2023/03/28 06:18:36;;;;;;;;;;;;;;;1.63;100.00;100819.72;5127280;27;19997;-65
2023/03/28 06:21:01;;;;;;;;;;;;;;;1.49;100.00;100818.88;5124510;27;20020;-63
2023/03/28 06:23:27;;;;;;;;;;;;;;;1.35;100.00;100811.09;5125745;27;19911;-66
2023/03/28 06:25:52;;;;;;;;;;;;;;;1.34;100.00;100812.03;5125834;27;19948;-65
2023/03/28 06:28:18;;;;;;;;;;;;;;;1.43;100.00;100818.44;5124237;27;19912;-63
2023/03/28 06:30:46;;;;;;;;;;;;;;;1.51;100.00;100814.38;5107949;27;19961;-63
2023/03/28 06:33:11;;;;;;;;;;;;;;;1.51;100.00;100816.16;5125660;27;20362;-64
2023/03/28 06:35:37;;;;;;;;;;;;;;;1.47;100.00;100809.44;5127260;27;19923;-64
2023/03/28 06:38:03;;;;;;;;;;;;;;;1.31;100.00;100809.59;5127161;27;19960;-63
2023/03/28 06:40:28;;;;;;;;;;;;;;;1.40;100.00;100808.16;5106986;27;19920;-65
2023/03/28 06:42:53;;;;;;;;;;;;;;;1.54;100.00;100814.16;5126323;27;19912;-63
2023/03/28 06:45:19;;;;;;;;;;;;;;;1.65;100.00;100817.84;5124345;27;19938;-66
2023/03/28 06:47:44;;;;;;;;;;;;;;;1.73;100.00;100826.84;5125972;27;20419;-65
2023/03/28 06:50:10;;;;;;;;;;;;;;;1.80;100.00;100822.06;5125137;27;19962;-64
2023/03/28 06:52:35;;;;;;;;;;;;;;;1.74;100.00;100828.56;5107464;27;19968;-64
2023/03/28 06:55:00;;;;;;;;;;;;;;;1.71;100.00;100818.25;5123734;27;19977;-62
2023/03/28 06:57:26;;;;;;;;;;;;;;;1.63;100.00;100824.97;5125174;27;19911;-64
2023/03/28 06:59:51;;;;;;;;;;;;;;;1.58;100.00;100817.41;5126366;27;20355;-66
2023/03/28 07:02:17;;;;;;;;;;;;;;;1.59;100.00;100823.50;5125406;27;19939;-63
2023/03/28 07:04:42;;;;;;;;;;;;;;;1.61;100.00;100827.72;5123507;27;19911;-64
2023/03/28 07:07:08;;;;;;;;;;;;;;;1.60;100.00;100835.69;5126574;27;19912;-66
2023/03/28 07:09:34;;;;;;;;;;;;;;;1.40;100.00;100835.22;5124831;27;19995;-64
2023/03/28 07:11:59;;;;;;;;;;;;;;;1.33;100.00;100833.97;5125242;27;20286;-65
2023/03/28 07:14:25;;;;;;;;;;;;;;;1.33;100.00;100836.59;5125703;27;19934;-64
2023/03/28 07:16:50;;;;;;;;;;;;;;;1.54;100.00;100837.78;5124141;27;19918;-65
2023/03/28 07:19:15;;;;;;;;;;;;;;;1.77;100.00;100830.16;5122003;27;19912;-63
2023/03/28 07:21:41;;;;;;;;;;;;;;;1.93;100.00;100833.38;5122996;27;19933;-65
2023/03/28 07:24:06;;;;;;;;;;;;;;;2.07;100.00;100840.34;5123477;27;19987;-65
2023/03/28 07:26:32;;;;;;;;;;;;;;;2.17;100.00;100836.94;5127310;27;19919;-64
2023/03/28 07:28:57;;;;;;;;;;;;;;;2.37;100.00;100838.19;5123513;27;20299;-66
2023/03/28 07:31:24;;;;;;;;;;;;;;;2.41;100.00;100839.66;5125335;27;19915;-66
2023/03/28 07:33:50;;;;;;;;;;;;;;;2.42;99.81;100841.31;5123192;27;20018;-65
2023/03/28 07:36:17;;;;;;;;;;;;;;;2.38;98.98;100828.50;5126479;27;19946;-65
2023/03/28 07:38:42;;;;;;;;;;;;;;;2.24;98.02;100853.13;5108006;27;19984;-65
2023/03/28 07:41:37;;;;;;;;;;;;;;;2.10;98.87;100861.97;5164694;27;19922;-64
2023/03/28 07:44:02;;;;;;;;;;;;;;;2.10;99.72;100864.59;5160609;27;20314;-64
2023/03/28 07:46:28;;;;;;;;;;;;;;;2.16;99.62;100853.66;5161360;27;19972;-63
2023/03/28 07:48:53;;;;;;;;;;;;;;;2.37;99.70;100864.47;5161111;27;19939;-64
2023/03/28 07:51:19;;;;;;;;;;;;;;;2.43;98.63;100864.03;5161948;27;19918;-65
2023/03/28 07:53:44;;;;;;;;;;;;;;;2.55;97.33;100856.22;5132430;27;19911;-66
2023/03/28 07:56:10;;;;;;;;;;;;;;;2.68;96.25;100847.38;5153645;27;19911;-67
2023/03/28 07:58:36;;;;;;;;;;;;;;;2.72;95.04;100854.06;5154858;27;20035;-66
2023/03/28 08:01:05;;;;;;;;;;;;;;;2.61;95.65;100861.06;5159849;27;20321;-65
2023/03/28 08:03:31;;;;;;;;;;;;;;;2.65;95.04;100871.25;5160566;27;19911;-67
2023/03/28 08:06:01;;;;;;;;;;;;;;;2.69;93.45;100870.06;5158062;27;20030;-65
2023/03/28 08:08:28;;;;;;;;;;;;;;;2.73;92.97;100871.53;5157833;27;19955;-67
2023/03/28 08:10:53;;;;;;;;;;;;;;;2.88;93.51;100876.63;5159878;27;20014;-66
2023/03/28 08:13:19;;;;;;;;;;;;;;;3.11;91.68;100883.69;5162536;27;20350;-67
2023/03/28 08:15:47;;;;;;;;;;;;;;;3.27;90.06;100881.66;5156258;27;19911;-65
2023/03/28 08:18:16;;;;;;;;;;;;;;;3.53;91.11;100886.78;5160803;27;19980;-64
2023/03/28 08:20:41;;;;;;;;;;;;;;;3.92;91.44;100882.94;5156126;27;20006;-64
2023/03/28 08:23:07;;;;;;;;;;;;;;;4.24;91.60;100883.91;5161709;27;20314;-65
2023/03/28 08:25:32;;;;;;;;;;;;;;;4.51;90.60;100891.47;5160236;27;19918;-67
2023/03/28 08:27:57;;;;;;;;;;;;;;;4.61;85.60;100886.31;5161812;27;20587;-65
2023/03/28 08:30:23;;;;;;;;;;;;;;;4.55;85.89;100878.88;5159148;27;19938;-64
2023/03/28 08:32:49;;;;;;;;;;;;;;;4.32;84.97;100880.69;5159119;27;19924;-65
2023/03/28 08:35:15;;;;;;;;;;;;;;;4.12;84.29;100879.63;5159879;27;19987;-64
2023/03/28 08:37:40;;;;;;;;;;;;;;;3.92;85.29;100885.56;5159887;27;19911;-69
2023/03/28 08:40:09;;;;;;;;;;;;;;;3.70;87.35;100883.69;5160114;27;20017;-66
2023/03/28 08:42:54;;;;;;;;;;;;;;;3.69;88.42;100884.66;5139540;27;19916;-65
2023/03/28 08:45:38;;;;;;;;;;;;;;;3.79;86.95;100882.19;5116644;27;19915;-67
2023/03/28 08:48:04;;;;;;;;;;;;;;;3.71;85.57;100874.84;5137642;27;19911;-67
2023/03/28 08:50:40;;;;;;;;;;;;;;;3.69;86.84;100874.13;5160114;27;20188;-67
2023/03/28 08:53:13;;;;;;;;;;;;;;;3.82;85.90;100872.25;5123981;27;20351;-66
2023/03/28 08:55:40;;;;;;;;;;;;;;;3.76;84.40;100872.72;5126476;27;20037;-67
2023/03/28 08:58:09;;;;;;;;;;;;;;;3.86;85.28;100878.97;5126487;27;19917;-66
2023/03/28 09:00:36;;;;;;;;;;;;;;;3.92;85.91;100882.94;5140964;27;19911;-66
2023/03/28 09:03:08;;;;;;;;;;;;;;;4.18;87.81;100888.84;5144263;27;20422;-68
2023/03/28 09:05:40;;;;;;;;;;;;;;;4.40;87.22;100885.38;5144687;27;19911;-66
2023/03/28 09:08:24;;;;;;;;;;;;;;;4.50;86.66;100884.53;5146774;27;19918;-67
2023/03/28 09:11:05;;;;;;;;;;;;;;;4.69;86.06;100878.66;5146123;27;19959;-67
2023/03/28 09:13:37;;;;;;;;;;;;;;;4.73;83.54;100873.97;5141681;27;19918;-67
2023/03/28 09:16:09;;;;;;;;;;;;;;;4.75;85.15;100872.88;5145606;27;19965;-67
2023/03/28 09:18:43;;;;;;;;;;;;;;;4.79;83.78;100876.09;5145113;27;19919;-67
2023/03/28 09:21:08;;;;;;;;;;;;;;;4.74;82.11;100870.38;5140942;27;19984;-66
2023/03/28 09:23:53;;;;;;;;;;;;;;;4.65;83.12;100885.97;5110710;27;20370;-67
2023/03/28 09:26:22;;;;;;;;;;;;;;;4.55;80.43;100882.38;5127243;27;19917;-64
2023/03/28 09:28:53;;;;;;;;;;;;;;;4.42;82.84;100891.38;5146132;27;19911;-66
2023/03/28 09:31:21;;;;;;;;;;;;;;;4.54;83.55;100891.22;5137283;27;20282;-67
2023/03/28 09:33:47;;;;;;;;;;;;;;;4.73;84.11;100895.06;5145119;27;19968;-66
2023/03/28 09:36:19;;;;;;;;;;;;;;;4.82;80.89;100892.53;5143912;27;19911;-65
2023/03/28 09:38:46;;;;;;;;;;;;;;;4.89;82.43;100887.59;5140863;27;19919;-65
2023/03/28 09:41:15;;;;;;;;;;;;;;;4.88;82.07;100883.28;5143821;27;19937;-66
2023/03/28 09:43:55;;;;;;;;;;;;;;;4.85;80.97;100891.44;5141012;27;20304;-63
2023/03/28 09:46:29;;;;;;;;;;;;;;;4.85;80.00;100896.72;5136358;27;20391;-64
2023/03/28 09:48:54;;;;;;;;;;;;;;;4.71;80.56;100886.44;5132286;27;19927;-65
2023/03/28 09:51:20;;;;;;;;;;;;;;;4.62;79.24;100901.19;5140980;27;19915;-65
2023/03/28 09:53:45;;;;;;;;;;;;;;;4.50;79.46;100900.34;5126502;27;20350;-65
2023/03/28 09:56:10;;;;;;;;;;;;;;;4.47;80.32;100899.75;5148974;27;19918;-65
2023/03/28 09:58:55;;;;;;;;;;;;;;;4.54;80.30;100901.78;5140965;27;19911;-65
2023/03/28 10:01:26;;;;;;;;;;;;;;;4.61;80.10;100902.97;5116551;27;20337;-66
2023/03/28 10:03:55;;;;;;;;;;;;;;;4.63;79.90;100901.09;5140221;27;19911;-64
2023/03/28 10:06:26;;;;;;;;;;;;;;;4.48;79.60;100901.44;5138755;27;20350;-64
2023/03/28 10:08:51;;;;;;;;;;;;;;;4.52;80.49;100902.88;5143756;27;19911;-64
2023/03/28 10:11:18;;;;;;;;;;;;;;;4.68;79.76;100897.25;5150294;27;19911;-68
2023/03/28 10:13:47;;;;;;;;;;;;;;;4.45;77.49;100897.25;5133427;27;19911;-66
2023/03/28 10:16:14;;;;;;;;;;;;;;;4.40;79.94;100891.50;5148087;27;20387;-68
2023/03/28 10:18:41;;;;;;;;;;;;;;;4.34;80.14;100894.63;5145951;27;19912;-65
2023/03/28 10:21:16;;;;;;;;;;;;;;;4.29;79.93;100896.75;5143910;27;19956;-64
2023/03/28 10:23:59;;;;;;;;;;;;;;;4.11;79.63;100898.19;5140632;27;19928;-66
2023/03/28 10:26:26;;;;;;;;;;;;;;;3.96;80.25;100893.09;5142938;27;20393;-66
2023/03/28 10:28:53;;;;;;;;;;;;;;;3.98;79.84;100883.28;5145935;27;20327;-68
2023/03/28 10:31:30;;;;;;;;;;;;;;;4.01;80.74;100888.31;5140478;27;19915;-63
2023/03/28 10:33:56;;;;;;;;;;;;;;;3.99;81.19;100889.41;5144060;27;19922;-65
2023/03/28 10:36:28;;;;;;;;;;;;;;;4.01;80.98;100898.03;5139031;27;19954;-68
2023/03/28 10:38:53;;;;;;;;;;;;;;;4.09;81.29;100900.09;5142339;27;19934;-65
2023/03/28 10:41:23;;;;;;;;;;;;;;;4.05;80.50;100894.22;5136387;27;20386;-66
2023/03/28 10:43:48;;;;;;;;;;;;;;;3.97;81.34;100886.88;5140635;27;19920;-65
2023/03/28 10:46:21;;;;;;;;;;;;;;;4.06;81.80;100880.09;5132123;27;20026;-65
2023/03/28 10:49:07;;;;;;;;;;;;;;;4.03;81.67;100881.13;5118258;27;19912;-67
2023/03/28 10:51:32;;;;;;;;;;;;;;;4.07;80.73;100870.38;5121162;27;19911;-67
2023/03/28 10:54:18;;;;;;;;;;;;;;;3.97;80.80;100863.16;5131416;27;20023;-66
2023/03/28 10:56:51;;;;;;;;;;;;;;;3.88;81.48;100879.69;5112646;28;20405;-64
2023/03/28 10:59:16;;;;;;;;;;;;;;;3.90;81.63;100880.41;5113230;28;19935;-66
2023/03/28 11:01:53;;;;;;;;;;;;;;;4.08;80.65;100862.38;5113592;28;20276;-67
2023/03/28 11:04:22;;;;;;;;;;;;;;;4.18;80.57;100855.41;5094780;28;19923;-64
2023/03/28 11:06:58;;;;;;;;;;;;;;;4.31;80.66;100858.75;5094759;28;19945;-66
2023/03/28 11:09:44;;;;;;;;;;;;;;;4.43;81.31;100849.06;5113557;27;19911;-66
2023/03/28 11:12:16;;;;;;;;;;;;;;;4.41;80.30;100871.25;5113366;27;20386;-65
2023/03/28 11:14:44;;;;;;;;;;;;;;;4.41;80.62;100863.31;5112961;28;19919;-66
2023/03/28 11:17:20;;;;;;;;;;;;;;;4.40;80.75;100866.94;5127711;27;19918;-65
2023/03/28 11:19:55;;;;;;;;;;;;;;;4.29;81.09;100867.75;5132445;27;20378;-65
2023/03/28 11:22:20;;;;;;;;;;;;;;;4.11;80.45;100866.56;5128815;27;19912;-67
2023/03/28 11:24:53;;;;;;;;;;;;;;;3.99;79.72;100869.16;5134081;27;19955;-64
2023/03/28 11:27:22;;;;;;;;;;;;;;;3.84;80.77;100862.44;5133857;27;19968;-64
2023/03/28 11:29:55;;;;;;;;;;;;;;;3.81;81.99;100860.03;5100076;28;19912;-65
2023/03/28 11:32:27;;;;;;;;;;;;;;;3.92;82.46;100861.84;5112786;28;19964;-65
2023/03/28 11:35:01;;;;;;;;;;;;;;;3.93;82.76;100843.28;5112661;28;19944;-64
2023/03/28 11:37:35;;;;;;;;;;;;;;;3.91;80.43;100837.28;5112548;28;20244;-65
2023/03/28 11:40:15;;;;;;;;;;;;;;;3.88;82.59;100841.97;5112831;28;19916;-65
2023/03/28 11:42:44;;;;;;;;;;;;;;;3.71;81.23;100845.88;5128134;28;19966;-64
2023/03/28 11:45:26;;;;;;;;;;;;;;;3.60;82.18;100848.50;5112789;28;19920;-63
2023/03/28 11:48:04;;;;;;;;;;;;;;;3.57;83.03;100846.09;5112624;28;19916;-64
2023/03/28 11:50:38;;;;;;;;;;;;;;;3.55;83.43;100846.22;5112408;28;19916;-64
2023/03/28 11:53:07;;;;;;;;;;;;;;;3.49;83.31;100854.56;5122620;28;19912;-64
2023/03/28 11:55:35;;;;;;;;;;;;;;;3.48;83.63;100844.16;5130926;28;19970;-66
2023/03/28 11:58:04;;;;;;;;;;;;;;;3.50;83.16;100837.81;5133169;27;19934;-65
2023/03/28 12:00:42;;;;;;;;;;;;;;;3.57;83.46;100856.63;5122035;28;19916;-65
2023/03/28 12:03:11;;;;;;;;;;;;;;;3.42;84.09;100851.53;5116786;28;20010;-66
2023/03/28 12:05:39;;;;;;;;;;;;;;;3.37;84.69;100845.78;5112304;28;19912;-66
2023/03/28 12:08:27;;;;;;;;;;;;;;;3.22;84.70;100841.66;5112455;28;19912;-64
2023/03/28 12:10:56;;;;;;;;;;;;;;;3.21;85.53;100836.53;5117427;27;19919;-66
2023/03/28 12:13:30;;;;;;;;;;;;;;;3.18;85.63;100837.59;5112309;28;19911;-63
2023/03/28 12:15:58;;;;;;;;;;;;;;;3.21;85.76;100833.88;5112163;28;19912;-67
2023/03/28 12:18:30;;;;;;;;;;;;;;;3.30;85.60;100838.47;5112321;28;19934;-65
2023/03/28 12:21:02;;;;;;;;;;;;;;;3.32;85.63;100840.03;5112148;28;19955;-64
2023/03/28 12:23:37;;;;;;;;;;;;;;;3.32;85.60;100832.13;5123876;27;19911;-64
2023/03/28 12:26:05;;;;;;;;;;;;;;;3.14;86.19;100830.84;5139440;27;20150;-64
2023/03/28 12:28:36;;;;;;;;;;;;;;;3.08;86.13;100828.69;5142675;27;20367;-65
2023/03/28 12:31:02;;;;;;;;;;;;;;;3.08;87.63;100818.16;5145436;27;19918;-63
2023/03/28 12:33:28;;;;;;;;;;;;;;;3.09;86.78;100817.19;5147807;27;20055;-66
2023/03/28 12:36:05;;;;;;;;;;;;;;;3.08;86.77;100815.53;5143039;27;19979;-64
2023/03/28 12:38:31;;;;;;;;;;;;;;;3.01;87.15;100814.28;5141730;27;19918;-64
2023/03/28 12:41:04;;;;;;;;;;;;;;;2.97;87.77;100804.97;5143749;27;19916;-64
2023/03/28 12:43:50;;;;;;;;;;;;;;;2.91;88.19;100800.16;5138450;27;19915;-65
2023/03/28 12:46:19;;;;;;;;;;;;;;;2.89;88.37;100807.28;5143948;27;20346;-63
2023/03/28 12:49:07;;;;;;;;;;;;;;;2.96;88.34;100806.75;5147404;27;19976;-63